sensor_id;sensor_type;location;lat;lon;timestamp;temperature;humidity
49441;DHT22;35317;51.978;6.296;2023-01-28T00:03:58;4.30;96.50
49441;DHT22;35317;51.978;6.296;2023-01-28T00:08:58;4.30;96.40
49441;DHT22;35317;51.978;6.296;2023-01-28T00:13:59;4.30;96.50
49441;DHT22;35317;51.978;6.296;2023-01-28T00:19:00;4.30;96.60
49441;DHT22;35317;51.978;6.296;2023-01-28T00:24:01;4.30;96.70
49441;DHT22;35317;51.978;6.296;2023-01-28T00:29:01;4.30;96.70
49441;DHT22;35317;51.978;6.296;2023-01-28T00:34:02;4.30;96.70
49441;DHT22;35317;51.978;6.296;2023-01-28T00:39:04;4.20;96.70
49441;DHT22;35317;51.978;6.296;2023-01-28T00:44:05;4.20;96.70
49441;DHT22;35317;51.978;6.296;2023-01-28T00:49:05;4.20;96.60
49441;DHT22;35317;51.978;6.296;2023-01-28T00:54:06;4.20;96.50
49441;DHT22;35317;51.978;6.296;2023-01-28T00:59:07;4.20;96.40
49441;DHT22;35317;51.978;6.296;2023-01-28T01:04:08;4.20;96.40
49441;DHT22;35317;51.978;6.296;2023-01-28T01:09:10;4.10;96.40
49441;DHT22;35317;51.978;6.296;2023-01-28T01:14:11;4.10;96.40
49441;DHT22;35317;51.978;6.296;2023-01-28T01:19:12;4.10;96.40
49441;DHT22;35317;51.978;6.296;2023-01-28T01:24:13;4.10;96.40
49441;DHT22;35317;51.978;6.296;2023-01-28T01:29:14;4.00;96.30
49441;DHT22;35317;51.978;6.296;2023-01-28T01:34:14;4.00;96.30
49441;DHT22;35317;51.978;6.296;2023-01-28T01:39:15;4.00;96.30
49441;DHT22;35317;51.978;6.296;2023-01-28T01:50:10;4.00;96.10
49441;DHT22;35317;51.978;6.296;2023-01-28T01:55:18;3.90;96.10
49441;DHT22;35317;51.978;6.296;2023-01-28T02:00:21;3.90;96.10
49441;DHT22;35317;51.978;6.296;2023-01-28T02:05:22;3.90;96.10
49441;DHT22;35317;51.978;6.296;2023-01-28T02:10:23;3.90;96.10
49441;DHT22;35317;51.978;6.296;2023-01-28T02:15:24;3.80;96.10
49441;DHT22;35317;51.978;6.296;2023-01-28T02:37:20;3.70;96.10
49441;DHT22;35317;51.978;6.296;2023-01-28T02:42:26;3.60;96.10
49441;DHT22;35317;51.978;6.296;2023-01-28T02:47:29;3.60;96.20
49441;DHT22;35317;51.978;6.296;2023-01-28T02:53:12;3.60;96.20
49441;DHT22;35317;51.978;6.296;2023-01-28T02:58:46;3.60;96.40
49441;DHT22;35317;51.978;6.296;2023-01-28T03:09:05;3.50;96.40
49441;DHT22;35317;51.978;6.296;2023-01-28T03:14:23;3.50;96.50
49441;DHT22;35317;51.978;6.296;2023-01-28T03:19:43;3.50;96.50
49441;DHT22;35317;51.978;6.296;2023-01-28T03:25:03;3.40;96.60
49441;DHT22;35317;51.978;6.296;2023-01-28T03:30:29;3.40;96.60
49441;DHT22;35317;51.978;6.296;2023-01-28T03:35:53;3.40;96.60
49441;DHT22;35317;51.978;6.296;2023-01-28T03:41:20;3.40;96.60
49441;DHT22;35317;51.978;6.296;2023-01-28T03:46:22;3.30;96.30
49441;DHT22;35317;51.978;6.296;2023-01-28T03:51:22;3.20;96.20
49441;DHT22;35317;51.978;6.296;2023-01-28T03:56:23;3.20;96.30
49441;DHT22;35317;51.978;6.296;2023-01-28T04:01:26;3.10;95.90
49441;DHT22;35317;51.978;6.296;2023-01-28T04:06:26;3.00;95.80
49441;DHT22;35317;51.978;6.296;2023-01-28T04:11:28;3.00;95.70
49441;DHT22;35317;51.978;6.296;2023-01-28T04:16:29;3.00;95.60
49441;DHT22;35317;51.978;6.296;2023-01-28T04:21:29;3.00;95.60
49441;DHT22;35317;51.978;6.296;2023-01-28T04:26:30;3.00;95.60
49441;DHT22;35317;51.978;6.296;2023-01-28T04:31:31;3.00;95.40
49441;DHT22;35317;51.978;6.296;2023-01-28T04:36:32;3.00;95.40
49441;DHT22;35317;51.978;6.296;2023-01-28T04:41:33;3.10;95.50
49441;DHT22;35317;51.978;6.296;2023-01-28T04:46:34;3.10;95.50
49441;DHT22;35317;51.978;6.296;2023-01-28T04:51:34;3.10;95.60
49441;DHT22;35317;51.978;6.296;2023-01-28T04:56:35;3.10;95.60
49441;DHT22;35317;51.978;6.296;2023-01-28T05:01:36;3.10;95.70
49441;DHT22;35317;51.978;6.296;2023-01-28T05:06:36;3.00;95.60
49441;DHT22;35317;51.978;6.296;2023-01-28T05:11:37;3.00;95.60
49441;DHT22;35317;51.978;6.296;2023-01-28T05:16:38;3.00;95.60
49441;DHT22;35317;51.978;6.296;2023-01-28T05:21:39;2.90;95.60
49441;DHT22;35317;51.978;6.296;2023-01-28T05:26:40;2.90;95.50
49441;DHT22;35317;51.978;6.296;2023-01-28T05:31:41;2.90;95.50
49441;DHT22;35317;51.978;6.296;2023-01-28T05:36:41;2.80;95.40
49441;DHT22;35317;51.978;6.296;2023-01-28T05:41:42;2.80;95.40
49441;DHT22;35317;51.978;6.296;2023-01-28T05:46:43;2.70;95.30
49441;DHT22;35317;51.978;6.296;2023-01-28T05:51:46;2.70;95.30
49441;DHT22;35317;51.978;6.296;2023-01-28T05:56:47;2.70;95.20
49441;DHT22;35317;51.978;6.296;2023-01-28T06:01:48;2.60;95.00
49441;DHT22;35317;51.978;6.296;2023-01-28T06:06:49;2.50;94.90
49441;DHT22;35317;51.978;6.296;2023-01-28T06:11:50;2.40;94.90
49441;DHT22;35317;51.978;6.296;2023-01-28T06:16:50;2.40;94.70
49441;DHT22;35317;51.978;6.296;2023-01-28T06:21:51;2.30;94.70
49441;DHT22;35317;51.978;6.296;2023-01-28T06:26:52;2.20;94.60
49441;DHT22;35317;51.978;6.296;2023-01-28T06:31:53;2.10;94.60
49441;DHT22;35317;51.978;6.296;2023-01-28T06:36:53;2.10;94.60
49441;DHT22;35317;51.978;6.296;2023-01-28T06:41:54;2.00;94.60
49441;DHT22;35317;51.978;6.296;2023-01-28T06:46:55;2.00;94.60
49441;DHT22;35317;51.978;6.296;2023-01-28T06:51:56;2.00;94.50
49441;DHT22;35317;51.978;6.296;2023-01-28T06:56:56;2.00;94.50
49441;DHT22;35317;51.978;6.296;2023-01-28T07:01:57;2.00;94.50
49441;DHT22;35317;51.978;6.296;2023-01-28T07:06:58;2.00;94.50
49441;DHT22;35317;51.978;6.296;2023-01-28T07:11:58;2.00;94.40
49441;DHT22;35317;51.978;6.296;2023-01-28T07:16:59;2.00;94.50
49441;DHT22;35317;51.978;6.296;2023-01-28T07:22:00;2.00;94.40
49441;DHT22;35317;51.978;6.296;2023-01-28T07:27:02;2.00;94.30
49441;DHT22;35317;51.978;6.296;2023-01-28T07:32:04;2.00;94.40
49441;DHT22;35317;51.978;6.296;2023-01-28T07:37:06;2.10;94.50
49441;DHT22;35317;51.978;6.296;2023-01-28T07:42:07;2.10;94.40
49441;DHT22;35317;51.978;6.296;2023-01-28T07:47:09;2.20;94.50
49441;DHT22;35317;51.978;6.296;2023-01-28T07:52:10;2.20;94.60
49441;DHT22;35317;51.978;6.296;2023-01-28T07:57:10;2.30;94.60
49441;DHT22;35317;51.978;6.296;2023-01-28T08:02:11;2.30;94.60
49441;DHT22;35317;51.978;6.296;2023-01-28T08:07:12;2.40;94.40
49441;DHT22;35317;51.978;6.296;2023-01-28T08:12:13;2.50;94.40
49441;DHT22;35317;51.978;6.296;2023-01-28T08:17:14;2.50;94.40
49441;DHT22;35317;51.978;6.296;2023-01-28T08:22:15;2.60;94.40
49441;DHT22;35317;51.978;6.296;2023-01-28T08:27:15;2.70;94.30
49441;DHT22;35317;51.978;6.296;2023-01-28T08:32:16;2.80;94.20
49441;DHT22;35317;51.978;6.296;2023-01-28T08:37:17;2.80;94.10
49441;DHT22;35317;51.978;6.296;2023-01-28T08:42:17;2.90;94.00
49441;DHT22;35317;51.978;6.296;2023-01-28T08:47:19;2.90;93.80
49441;DHT22;35317;51.978;6.296;2023-01-28T08:52:21;3.00;93.80
49441;DHT22;35317;51.978;6.296;2023-01-28T08:57:21;3.00;93.80
49441;DHT22;35317;51.978;6.296;2023-01-28T09:02:22;3.10;93.70
49441;DHT22;35317;51.978;6.296;2023-01-28T09:07:23;3.00;93.70
49441;DHT22;35317;51.978;6.296;2023-01-28T09:12:23;3.10;93.90
49441;DHT22;35317;51.978;6.296;2023-01-28T09:17:24;3.10;94.00
49441;DHT22;35317;51.978;6.296;2023-01-28T09:22:25;3.10;94.10
49441;DHT22;35317;51.978;6.296;2023-01-28T09:27:26;3.20;94.10
49441;DHT22;35317;51.978;6.296;2023-01-28T09:32:27;3.20;94.10
49441;DHT22;35317;51.978;6.296;2023-01-28T09:37:28;3.30;94.00
49441;DHT22;35317;51.978;6.296;2023-01-28T09:47:46;3.30;93.70
49441;DHT22;35317;51.978;6.296;2023-01-28T09:52:54;3.30;93.80
49441;DHT22;35317;51.978;6.296;2023-01-28T09:57:57;3.40;93.80
49441;DHT22;35317;51.978;6.296;2023-01-28T10:13:48;3.40;93.60
49441;DHT22;35317;51.978;6.296;2023-01-28T10:19:06;3.40;93.30
49441;DHT22;35317;51.978;6.296;2023-01-28T10:24:24;3.30;93.30
49441;DHT22;35317;51.978;6.296;2023-01-28T10:29:38;3.40;93.40
49441;DHT22;35317;51.978;6.296;2023-01-28T10:34:43;3.40;93.40
49441;DHT22;35317;51.978;6.296;2023-01-28T10:39:44;3.60;93.40
49441;DHT22;35317;51.978;6.296;2023-01-28T10:44:46;3.70;93.20
49441;DHT22;35317;51.978;6.296;2023-01-28T10:49:51;3.80;93.10
49441;DHT22;35317;51.978;6.296;2023-01-28T10:55:04;3.90;92.90
49441;DHT22;35317;51.978;6.296;2023-01-28T11:00:25;4.00;92.60
49441;DHT22;35317;51.978;6.296;2023-01-28T11:05:30;4.00;92.30
49441;DHT22;35317;51.978;6.296;2023-01-28T11:10:36;3.90;92.40
49441;DHT22;35317;51.978;6.296;2023-01-28T11:15:50;3.80;91.80
49441;DHT22;35317;51.978;6.296;2023-01-28T11:21:14;3.60;92.10
49441;DHT22;35317;51.978;6.296;2023-01-28T11:26:18;3.50;92.30
49441;DHT22;35317;51.978;6.296;2023-01-28T11:31:22;3.30;91.80
49441;DHT22;35317;51.978;6.296;2023-01-28T11:36:31;3.30;92.40
49441;DHT22;35317;51.978;6.296;2023-01-28T11:41:37;3.20;92.50
49441;DHT22;35317;51.978;6.296;2023-01-28T11:57:35;3.20;92.80
49441;DHT22;35317;51.978;6.296;2023-01-28T12:08:55;3.20;92.50
49441;DHT22;35317;51.978;6.296;2023-01-28T12:19:49;3.30;92.80
49441;DHT22;35317;51.978;6.296;2023-01-28T12:25:04;3.40;92.70
49441;DHT22;35317;51.978;6.296;2023-01-28T12:35:34;3.50;92.60
49441;DHT22;35317;51.978;6.296;2023-01-28T12:41:01;3.50;92.60
49441;DHT22;35317;51.978;6.296;2023-01-28T12:46:15;3.60;92.60
49441;DHT22;35317;51.978;6.296;2023-01-28T12:52:20;3.70;92.50
49441;DHT22;35317;51.978;6.296;2023-01-28T12:56:55;3.70;92.40
49441;DHT22;35317;51.978;6.296;2023-01-28T13:02:19;3.90;92.30
49441;DHT22;35317;51.978;6.296;2023-01-28T13:07:34;4.00;92.40
49441;DHT22;35317;51.978;6.296;2023-01-28T13:12:40;4.30;92.20
49441;DHT22;35317;51.978;6.296;2023-01-28T13:18:03;4.50;92.00
49441;DHT22;35317;51.978;6.296;2023-01-28T13:23:40;4.90;91.80
49441;DHT22;35317;51.978;6.296;2023-01-28T13:28:49;5.30;91.20
49441;DHT22;35317;51.978;6.296;2023-01-28T13:39:06;6.20;90.10
49441;DHT22;35317;51.978;6.296;2023-01-28T13:44:20;6.40;89.30
49441;DHT22;35317;51.978;6.296;2023-01-28T13:49:33;6.70;88.30
49441;DHT22;35317;51.978;6.296;2023-01-28T13:54:52;6.70;87.10
49441;DHT22;35317;51.978;6.296;2023-01-28T14:15:56;6.90;85.90
49441;DHT22;35317;51.978;6.296;2023-01-28T14:21:02;7.00;84.60
49441;DHT22;35317;51.978;6.296;2023-01-28T14:26:20;7.10;84.60
49441;DHT22;35317;51.978;6.296;2023-01-28T14:31:28;7.10;84.10
49441;DHT22;35317;51.978;6.296;2023-01-28T14:36:39;7.00;84.00
49441;DHT22;35317;51.978;6.296;2023-01-28T14:41:43;6.80;84.20
49441;DHT22;35317;51.978;6.296;2023-01-28T14:52:24;6.50;84.00
49441;DHT22;35317;51.978;6.296;2023-01-28T14:57:52;6.50;84.10
49441;DHT22;35317;51.978;6.296;2023-01-28T15:02:56;6.40;83.50
49441;DHT22;35317;51.978;6.296;2023-01-28T15:07:57;6.30;84.40
49441;DHT22;35317;51.978;6.296;2023-01-28T15:13:04;6.10;84.20
49441;DHT22;35317;51.978;6.296;2023-01-28T15:18:28;5.90;84.20
49441;DHT22;35317;51.978;6.296;2023-01-28T15:23:41;5.60;84.60
49441;DHT22;35317;51.978;6.296;2023-01-28T15:28:43;5.30;85.30
49441;DHT22;35317;51.978;6.296;2023-01-28T15:33:45;5.00;85.70
49441;DHT22;35317;51.978;6.296;2023-01-28T15:38:45;4.70;86.20
49441;DHT22;35317;51.978;6.296;2023-01-28T15:43:48;4.50;86.80
49441;DHT22;35317;51.978;6.296;2023-01-28T15:49:01;4.20;87.10
49441;DHT22;35317;51.978;6.296;2023-01-28T15:54:06;4.00;87.60
49441;DHT22;35317;51.978;6.296;2023-01-28T16:04:27;3.60;88.70
49441;DHT22;35317;51.978;6.296;2023-01-28T16:09:33;3.30;89.20
49441;DHT22;35317;51.978;6.296;2023-01-28T16:14:50;3.10;89.70
49441;DHT22;35317;51.978;6.296;2023-01-28T16:20:02;3.00;90.10
49441;DHT22;35317;51.978;6.296;2023-01-28T16:25:32;2.80;90.30
49441;DHT22;35317;51.978;6.296;2023-01-28T16:30:33;2.60;90.60
49441;DHT22;35317;51.978;6.296;2023-01-28T16:35:34;2.50;90.90
49441;DHT22;35317;51.978;6.296;2023-01-28T16:40:37;2.30;91.10
49441;DHT22;35317;51.978;6.296;2023-01-28T16:45:38;2.20;91.40
49441;DHT22;35317;51.978;6.296;2023-01-28T16:50:43;2.20;91.60
49441;DHT22;35317;51.978;6.296;2023-01-28T16:55:43;2.20;91.90
49441;DHT22;35317;51.978;6.296;2023-01-28T17:00:44;2.30;92.10
49441;DHT22;35317;51.978;6.296;2023-01-28T17:05:45;2.40;92.20
49441;DHT22;35317;51.978;6.296;2023-01-28T17:10:53;2.50;92.20
49441;DHT22;35317;51.978;6.296;2023-01-28T17:15:54;2.60;92.30
49441;DHT22;35317;51.978;6.296;2023-01-28T17:21:08;2.70;92.40
49441;DHT22;35317;51.978;6.296;2023-01-28T17:26:11;2.70;92.40
49441;DHT22;35317;51.978;6.296;2023-01-28T17:31:14;2.70;92.40
49441;DHT22;35317;51.978;6.296;2023-01-28T17:36:15;2.80;92.50
49441;DHT22;35317;51.978;6.296;2023-01-28T17:41:16;2.70;92.50
49441;DHT22;35317;51.978;6.296;2023-01-28T17:46:17;2.70;92.50
49441;DHT22;35317;51.978;6.296;2023-01-28T17:51:18;2.70;92.60
49441;DHT22;35317;51.978;6.296;2023-01-28T17:56:22;2.70;92.70
49441;DHT22;35317;51.978;6.296;2023-01-28T18:01:25;2.70;92.80
49441;DHT22;35317;51.978;6.296;2023-01-28T18:06:33;2.70;92.90
49441;DHT22;35317;51.978;6.296;2023-01-28T18:11:34;2.80;92.90
49441;DHT22;35317;51.978;6.296;2023-01-28T18:16:35;2.80;92.90
49441;DHT22;35317;51.978;6.296;2023-01-28T18:21:38;2.80;92.90
49441;DHT22;35317;51.978;6.296;2023-01-28T18:26:40;2.90;92.90
49441;DHT22;35317;51.978;6.296;2023-01-28T18:31:41;2.90;92.90
49441;DHT22;35317;51.978;6.296;2023-01-28T18:36:42;2.90;92.90
49441;DHT22;35317;51.978;6.296;2023-01-28T18:41:43;2.90;93.00
49441;DHT22;35317;51.978;6.296;2023-01-28T18:46:43;2.90;93.00
49441;DHT22;35317;51.978;6.296;2023-01-28T18:51:44;2.90;93.00
49441;DHT22;35317;51.978;6.296;2023-01-28T18:56:45;2.90;93.00
49441;DHT22;35317;51.978;6.296;2023-01-28T19:01:47;2.90;93.10
49441;DHT22;35317;51.978;6.296;2023-01-28T19:06:54;2.90;93.20
49441;DHT22;35317;51.978;6.296;2023-01-28T19:11:55;2.80;93.20
49441;DHT22;35317;51.978;6.296;2023-01-28T19:16:56;2.90;93.30
49441;DHT22;35317;51.978;6.296;2023-01-28T19:21:57;2.90;93.30
49441;DHT22;35317;51.978;6.296;2023-01-28T19:26:58;2.90;93.30
49441;DHT22;35317;51.978;6.296;2023-01-28T19:31:59;3.00;93.40
49441;DHT22;35317;51.978;6.296;2023-01-28T19:36:59;3.00;93.40
49441;DHT22;35317;51.978;6.296;2023-01-28T19:42:00;3.00;93.40
49441;DHT22;35317;51.978;6.296;2023-01-28T19:47:01;3.00;93.40
49441;DHT22;35317;51.978;6.296;2023-01-28T19:52:02;3.00;93.40
49441;DHT22;35317;51.978;6.296;2023-01-28T19:57:03;3.00;93.40
49441;DHT22;35317;51.978;6.296;2023-01-28T20:02:04;3.00;93.50
49441;DHT22;35317;51.978;6.296;2023-01-28T20:07:05;3.10;93.50
49441;DHT22;35317;51.978;6.296;2023-01-28T20:12:05;3.10;93.60
49441;DHT22;35317;51.978;6.296;2023-01-28T20:17:11;3.10;93.60
49441;DHT22;35317;51.978;6.296;2023-01-28T20:22:11;3.10;93.60
49441;DHT22;35317;51.978;6.296;2023-01-28T20:27:12;3.10;93.70
49441;DHT22;35317;51.978;6.296;2023-01-28T20:32:13;3.10;93.70
49441;DHT22;35317;51.978;6.296;2023-01-28T20:37:14;3.00;93.70
49441;DHT22;35317;51.978;6.296;2023-01-28T20:42:15;3.00;93.70
49441;DHT22;35317;51.978;6.296;2023-01-28T20:47:16;3.00;93.80
49441;DHT22;35317;51.978;6.296;2023-01-28T20:52:16;3.00;93.90
49441;DHT22;35317;51.978;6.296;2023-01-28T20:57:17;3.00;94.00
49441;DHT22;35317;51.978;6.296;2023-01-28T21:02:18;3.00;94.00
49441;DHT22;35317;51.978;6.296;2023-01-28T21:07:19;3.00;94.10
49441;DHT22;35317;51.978;6.296;2023-01-28T21:12:19;3.00;94.20
49441;DHT22;35317;51.978;6.296;2023-01-28T21:17:20;2.90;94.20
49441;DHT22;35317;51.978;6.296;2023-01-28T21:22:21;2.90;94.20
49441;DHT22;35317;51.978;6.296;2023-01-28T21:27:22;3.00;94.30
49441;DHT22;35317;51.978;6.296;2023-01-28T21:32:23;2.90;94.40
49441;DHT22;35317;51.978;6.296;2023-01-28T21:37:24;2.90;94.40
49441;DHT22;35317;51.978;6.296;2023-01-28T21:42:25;2.90;94.50
49441;DHT22;35317;51.978;6.296;2023-01-28T21:47:26;2.90;94.50
49441;DHT22;35317;51.978;6.296;2023-01-28T21:52:27;2.90;94.60
49441;DHT22;35317;51.978;6.296;2023-01-28T21:57:27;2.90;94.60
49441;DHT22;35317;51.978;6.296;2023-01-28T22:02:28;2.90;94.70
49441;DHT22;35317;51.978;6.296;2023-01-28T22:07:29;2.90;94.80
49441;DHT22;35317;51.978;6.296;2023-01-28T22:12:30;2.90;94.90
49441;DHT22;35317;51.978;6.296;2023-01-28T22:17:30;2.90;94.90
49441;DHT22;35317;51.978;6.296;2023-01-28T22:22:31;2.90;95.00
49441;DHT22;35317;51.978;6.296;2023-01-28T22:27:32;2.90;95.10
49441;DHT22;35317;51.978;6.296;2023-01-28T22:32:32;2.80;95.10
49441;DHT22;35317;51.978;6.296;2023-01-28T22:37:33;2.90;95.20
49441;DHT22;35317;51.978;6.296;2023-01-28T22:42:34;2.90;95.20
49441;DHT22;35317;51.978;6.296;2023-01-28T22:47:35;2.80;95.30
49441;DHT22;35317;51.978;6.296;2023-01-28T22:52:35;2.80;95.30
49441;DHT22;35317;51.978;6.296;2023-01-28T22:57:36;2.80;95.30
49441;DHT22;35317;51.978;6.296;2023-01-28T23:02:37;2.80;95.40
49441;DHT22;35317;51.978;6.296;2023-01-28T23:07:38;2.70;95.40
49441;DHT22;35317;51.978;6.296;2023-01-28T23:12:38;2.70;95.50
49441;DHT22;35317;51.978;6.296;2023-01-28T23:17:39;2.70;95.60
49441;DHT22;35317;51.978;6.296;2023-01-28T23:22:58;2.60;95.60
49441;DHT22;35317;51.978;6.296;2023-01-28T23:28:18;2.60;95.60
49441;DHT22;35317;51.978;6.296;2023-01-28T23:33:18;2.60;95.70
49441;DHT22;35317;51.978;6.296;2023-01-28T23:38:19;2.60;95.70
49441;DHT22;35317;51.978;6.296;2023-01-28T23:43:20;2.60;95.70
49441;DHT22;35317;51.978;6.296;2023-01-28T23:48:21;2.60;95.80
49441;DHT22;35317;51.978;6.296;2023-01-28T23:53:22;2.60;95.90
49441;DHT22;35317;51.978;6.296;2023-01-28T23:58:23;2.60;96.00
